Time;durP1;ratioP1;P1;durP2;ratioP2;P2;SDS_P1;SDS_P2;PMS_P1;PMS_P2;Temp;Humidity;BMP_temperature;BMP_pressure;BME280_temperature;BME280_humidity;BME280_pressure;Samples;Min_cycle;Max_cycle;Signal;HPM_P1;HPM_P2
2022/12/05 00:00:33;;;;;;;33.83;20.58;;;;;;;;;;5058687;28;20102;-95
2022/12/05 00:03:02;;;;;;;34.05;20.65;;;;;;;;;;5092861;28;20032;-96
2022/12/05 00:05:28;;;;;;;34.30;20.27;;;;;;;;;;5052940;28;20101;-96
2022/12/05 00:07:55;;;;;;;35.92;21.75;;;;;;;;;;5057450;28;20048;-95
2022/12/05 00:10:21;;;;;;;33.40;20.55;;;;;;;;;;5072219;28;20037;-95
2022/12/05 00:12:47;;;;;;;33.05;19.60;;;;;;;;;;5052307;28;20477;-95
2022/12/05 00:15:13;;;;;;;33.47;19.75;;;;;;;;;;5053171;28;20072;-96
2022/12/05 00:17:40;;;;;;;35.17;21.90;;;;;;;;;;5073736;28;20070;-95
2022/12/05 00:20:06;;;;;;;34.97;22.00;;;;;;;;;;5037026;28;20049;-95
2022/12/05 00:22:35;;;;;;;33.40;21.75;;;;;;;;;;5052551;28;20391;-96
2022/12/05 00:25:01;;;;;;;28.40;18.10;;;;;;;;;;5036781;28;20370;-94
2022/12/05 00:27:28;;;;;;;34.40;21.27;;;;;;;;;;5043238;28;20041;-95
2022/12/05 00:29:54;;;;;;;35.88;22.25;;;;;;;;;;5036509;28;20048;-95
2022/12/05 00:32:20;;;;;;;33.90;21.73;;;;;;;;;;5030115;28;20037;-96
2022/12/05 00:34:46;;;;;;;33.95;20.10;;;;;;;;;;5041131;28;20032;-96
2022/12/05 00:37:15;;;;;;;29.00;18.70;;;;;;;;;;5048051;28;20036;-95
2022/12/05 00:39:41;;;;;;;35.83;21.58;;;;;;;;;;5026379;28;20409;-96
2022/12/05 00:42:07;;;;;;;34.35;22.08;;;;;;;;;;5033072;28;20045;-95
2022/12/05 00:44:33;;;;;;;35.97;22.45;;;;;;;;;;5029488;28;20090;-96
2022/12/05 00:46:59;;;;;;;35.55;21.70;;;;;;;;;;5051476;28;20040;-95
2022/12/05 00:49:25;;;;;;;35.35;22.00;;;;;;;;;;5052603;28;20067;-95
2022/12/05 00:51:51;;;;;;;34.28;20.95;;;;;;;;;;5052566;28;20040;-95
2022/12/05 00:54:17;;;;;;;35.25;23.05;;;;;;;;;;5049913;28;20099;-96
2022/12/05 00:56:44;;;;;;;32.70;20.92;;;;;;;;;;5053138;28;20043;-96
2022/12/05 00:59:15;;;;;;;37.30;21.48;;;;;;;;;;5052154;28;20489;-96
2022/12/05 01:01:42;;;;;;;37.60;22.65;;;;;;;;;;5053173;28;20504;-95
2022/12/05 01:04:13;;;;;;;37.15;22.58;;;;;;;;;;5051426;28;20040;-96
2022/12/05 01:06:39;;;;;;;36.83;22.75;;;;;;;;;;5051975;28;20033;-96
2022/12/05 01:09:06;;;;;;;36.42;23.98;;;;;;;;;;5051816;28;20044;-95
2022/12/05 01:11:32;;;;;;;35.67;23.40;;;;;;;;;;5036314;28;20036;-96
2022/12/05 01:13:58;;;;;;;37.85;22.92;;;;;;;;;;5052384;28;20041;-95
2022/12/05 01:16:26;;;;;;;36.92;23.25;;;;;;;;;;5052528;28;20128;-96
2022/12/05 01:18:52;;;;;;;41.17;25.33;;;;;;;;;;5059649;28;20087;-95
2022/12/05 01:21:19;;;;;;;37.22;23.35;;;;;;;;;;5055957;28;20040;-95
2022/12/05 01:23:45;;;;;;;39.08;23.10;;;;;;;;;;5046504;28;20065;-94
2022/12/05 01:26:12;;;;;;;37.55;23.50;;;;;;;;;;5040992;28;20037;-95
2022/12/05 01:28:39;;;;;;;41.35;23.40;;;;;;;;;;5036334;28;20047;-95
2022/12/05 01:31:06;;;;;;;36.55;23.35;;;;;;;;;;5036997;28;20134;-96
2022/12/05 01:33:32;;;;;;;40.42;24.60;;;;;;;;;;5050160;28;20048;-96
2022/12/05 01:36:01;;;;;;;38.05;23.50;;;;;;;;;;5041946;28;20036;-96
2022/12/05 01:38:27;;;;;;;38.42;23.90;;;;;;;;;;5034086;28;20032;-96
2022/12/05 01:41:04;;;;;;;35.72;23.00;;;;;;;;;;5038928;28;20270;-96
2022/12/05 01:43:30;;;;;;;38.53;22.88;;;;;;;;;;5033920;28;20595;-94
2022/12/05 01:45:56;;;;;;;42.38;25.00;;;;;;;;;;5052704;28;20067;-95
2022/12/05 01:48:25;;;;;;;42.08;24.83;;;;;;;;;;5034954;28;20299;-95
2022/12/05 01:50:51;;;;;;;39.35;23.52;;;;;;;;;;5035087;28;20108;-95
2022/12/05 01:53:18;;;;;;;43.90;25.55;;;;;;;;;;5025682;28;20523;-96
2022/12/05 01:55:45;;;;;;;43.35;25.55;;;;;;;;;;5042880;28;20044;-96
2022/12/05 01:58:11;;;;;;;44.28;26.00;;;;;;;;;;5051962;28;20147;-96
2022/12/05 02:00:41;;;;;;;47.60;27.02;;;;;;;;;;5052390;28;20049;-95
2022/12/05 02:03:09;;;;;;;47.90;27.10;;;;;;;;;;5051014;28;20048;-95
2022/12/05 02:05:36;;;;;;;44.67;26.42;;;;;;;;;;5052455;28;20044;-94
2022/12/05 02:08:04;;;;;;;46.05;27.40;;;;;;;;;;5051578;28;20386;-95
2022/12/05 02:10:33;;;;;;;45.30;23.65;;;;;;;;;;5040468;28;20045;-94
2022/12/05 02:13:05;;;;;;;47.15;27.25;;;;;;;;;;5038491;28;20448;-96
2022/12/05 02:15:45;;;;;;;54.80;28.67;;;;;;;;;;5054510;28;20097;-96
2022/12/05 02:18:30;;;;;;;51.85;27.45;;;;;;;;;;5054062;28;20135;-95
2022/12/05 02:21:05;;;;;;;50.45;27.88;;;;;;;;;;5041117;28;20422;-94
2022/12/05 02:24:06;;;;;;;48.88;27.58;;;;;;;;;;5057564;28;20033;-95
2022/12/05 02:26:37;;;;;;;48.15;25.70;;;;;;;;;;4990878;28;20042;-96
2022/12/05 02:29:06;;;;;;;51.75;28.85;;;;;;;;;;4984114;28;20046;-96
2022/12/05 02:31:43;;;;;;;53.35;29.20;;;;;;;;;;4989531;28;20046;-95
2022/12/05 02:34:29;;;;;;;47.90;24.88;;;;;;;;;;4991520;28;20065;-95
2022/12/05 02:36:58;;;;;;;55.33;30.15;;;;;;;;;;4974870;28;20142;-95
2022/12/05 02:39:30;;;;;;;51.40;26.55;;;;;;;;;;4973075;28;20043;-95
2022/12/05 02:42:03;;;;;;;48.88;28.05;;;;;;;;;;4973795;28;20058;-95
2022/12/05 02:44:37;;;;;;;47.05;25.27;;;;;;;;;;4958812;28;20054;-95
2022/12/05 02:47:07;;;;;;;49.25;25.27;;;;;;;;;;4955473;28;20089;-95
2022/12/05 02:49:35;;;;;;;51.15;28.30;;;;;;;;;;4992624;28;20077;-95
2022/12/05 02:52:02;;;;;;;48.47;27.73;;;;;;;;;;4994518;28;20038;-95
2022/12/05 02:54:35;;;;;;;50.00;29.33;;;;;;;;;;5003673;28;20073;-95
2022/12/05 02:57:01;;;;;;;49.03;27.83;;;;;;;;;;4979527;28;20192;-95
2022/12/05 02:59:28;;;;;;;45.80;25.73;;;;;;;;;;4992132;28;20049;-95
2022/12/05 03:01:54;;;;;;;52.25;27.58;;;;;;;;;;5070305;28;20036;-96
2022/12/05 03:04:22;;;;;;;52.05;28.73;;;;;;;;;;5037634;28;20056;-96
2022/12/05 03:06:56;;;;;;;48.90;24.73;;;;;;;;;;5059738;28;20043;-95
2022/12/05 03:09:28;;;;;;;50.08;28.63;;;;;;;;;;5057854;28;20048;-96
2022/12/05 03:12:05;;;;;;;48.85;27.23;;;;;;;;;;5068797;28;20036;-95
2022/12/05 03:14:34;;;;;;;46.55;27.38;;;;;;;;;;5053303;28;20045;-95
2022/12/05 03:17:02;;;;;;;50.72;27.45;;;;;;;;;;5054650;28;20135;-95
2022/12/05 03:19:46;;;;;;;46.47;24.20;;;;;;;;;;5024091;28;20076;-95
2022/12/05 03:22:23;;;;;;;49.63;27.38;;;;;;;;;;5053304;28;20048;-95
2022/12/05 03:24:49;;;;;;;47.00;26.73;;;;;;;;;;5053458;28;20043;-94
2022/12/05 03:27:27;;;;;;;52.60;27.95;;;;;;;;;;5069774;28;20048;-95
2022/12/05 03:29:55;;;;;;;52.53;28.52;;;;;;;;;;5058781;28;20044;-96
2022/12/05 03:32:30;;;;;;;50.80;27.45;;;;;;;;;;5070950;28;20045;-96
2022/12/05 03:35:11;;;;;;;54.60;27.70;;;;;;;;;;5052359;28;20052;-95
2022/12/05 03:37:56;;;;;;;50.88;25.50;;;;;;;;;;5053945;28;20040;-94
2022/12/05 03:40:31;;;;;;;44.90;25.02;;;;;;;;;;5048629;28;20052;-95
2022/12/05 03:43:01;;;;;;;46.75;23.90;;;;;;;;;;5048592;28;20405;-95
2022/12/05 03:45:31;;;;;;;43.00;24.45;;;;;;;;;;5068526;28;20048;-95
2022/12/05 03:48:06;;;;;;;48.50;25.90;;;;;;;;;;5036858;28;20036;-96
2022/12/05 03:50:34;;;;;;;48.28;25.40;;;;;;;;;;5043100;28;20309;-95
2022/12/05 03:53:07;;;;;;;45.05;23.00;;;;;;;;;;5051295;28;20036;-95
2022/12/05 03:55:34;;;;;;;39.35;22.63;;;;;;;;;;5052406;28;20127;-94
2022/12/05 03:58:02;;;;;;;42.60;22.55;;;;;;;;;;5036394;28;20048;-94
2022/12/05 04:00:31;;;;;;;45.88;24.35;;;;;;;;;;5051811;28;20032;-95
2022/12/05 04:03:02;;;;;;;44.08;23.42;;;;;;;;;;5067998;28;20036;-96
2022/12/05 04:05:37;;;;;;;35.50;18.77;;;;;;;;;;5050934;28;20070;-94
2022/12/05 04:08:06;;;;;;;40.88;21.92;;;;;;;;;;5035659;28;20123;-95
2022/12/05 04:10:47;;;;;;;38.25;19.77;;;;;;;;;;5051401;28;20651;-96
2022/12/05 04:13:17;;;;;;;40.90;21.85;;;;;;;;;;5056337;28;20036;-95
2022/12/05 04:18:36;;;;;;;36.78;21.17;;;;;;;;;;5053938;28;20056;-95
2022/12/05 04:25:31;;;;;;;37.92;21.58;;;;;;;;;;5049573;28;20477;-95
2022/12/05 04:26:35;;;;;;;35.08;21.00;;;;;;;;;;5073357;28;20681;-96
2022/12/05 04:29:13;;;;;;;33.45;19.88;;;;;;;;;;5036004;28;22233;-95
2022/12/05 04:31:41;;;;;;;32.60;20.20;;;;;;;;;;5062689;28;20059;-94
2022/12/05 04:34:10;;;;;;;33.55;20.38;;;;;;;;;;5060716;28;20036;-95
2022/12/05 04:36:44;;;;;;;31.55;19.38;;;;;;;;;;5035456;28;20633;-95
2022/12/05 04:39:15;;;;;;;31.23;18.98;;;;;;;;;;5033506;28;20175;-94
2022/12/05 04:41:49;;;;;;;35.05;19.70;;;;;;;;;;5052139;28;20051;-96
2022/12/05 04:44:17;;;;;;;31.75;19.77;;;;;;;;;;5043831;28;20075;-95
2022/12/05 04:46:44;;;;;;;35.75;21.45;;;;;;;;;;5051524;28;20154;-94
2022/12/05 04:49:12;;;;;;;35.22;20.92;;;;;;;;;;5024560;28;20488;-95
2022/12/05 04:51:39;;;;;;;31.88;18.75;;;;;;;;;;5063783;28;20044;-95
2022/12/05 04:54:19;;;;;;;33.78;20.70;;;;;;;;;;5038002;28;20040;-96
2022/12/05 04:56:48;;;;;;;37.05;21.58;;;;;;;;;;5043217;28;20044;-94
2022/12/05 04:59:14;;;;;;;35.05;21.63;;;;;;;;;;5036431;28;20041;-95
2022/12/05 05:01:46;;;;;;;36.75;21.38;;;;;;;;;;5067009;28;20231;-94
2022/12/05 05:04:25;;;;;;;37.97;21.67;;;;;;;;;;5045950;28;20088;-94
2022/12/05 05:06:51;;;;;;;33.78;18.70;;;;;;;;;;5055751;28;20054;-94
2022/12/05 05:09:17;;;;;;;31.35;17.80;;;;;;;;;;5076597;28;20028;-93
2022/12/05 05:11:43;;;;;;;37.30;20.38;;;;;;;;;;5065533;28;20488;-94
2022/12/05 05:14:10;;;;;;;31.83;18.73;;;;;;;;;;5050646;28;20326;-94
2022/12/05 05:16:38;;;;;;;31.23;19.65;;;;;;;;;;5053518;28;20062;-95
2022/12/05 05:19:05;;;;;;;34.30;18.92;;;;;;;;;;5032547;28;20040;-95
2022/12/05 05:21:35;;;;;;;34.13;19.58;;;;;;;;;;5033203;28;20043;-94
2022/12/05 05:24:02;;;;;;;29.88;17.77;;;;;;;;;;5069179;28;20044;-95
2022/12/05 05:26:29;;;;;;;29.58;19.48;;;;;;;;;;5070883;28;20043;-95
2022/12/05 05:28:57;;;;;;;33.10;19.10;;;;;;;;;;5052019;28;20092;-93
2022/12/05 05:31:23;;;;;;;30.50;17.98;;;;;;;;;;5069369;28;20052;-95
2022/12/05 05:33:49;;;;;;;33.42;19.27;;;;;;;;;;5067776;28;20045;-96
2022/12/05 05:36:16;;;;;;;27.35;16.10;;;;;;;;;;5050107;28;20072;-95
2022/12/05 05:38:47;;;;;;;31.80;19.73;;;;;;;;;;5050967;28;20063;-96
2022/12/05 05:41:14;;;;;;;34.95;19.10;;;;;;;;;;5057743;28;20516;-95
2022/12/05 05:43:41;;;;;;;30.60;19.00;;;;;;;;;;5036553;28;20508;-93
2022/12/05 05:46:07;;;;;;;29.05;17.90;;;;;;;;;;5031710;28;20040;-95
2022/12/05 05:48:33;;;;;;;29.83;17.55;;;;;;;;;;5039105;28;20138;-95
2022/12/05 05:50:59;;;;;;;28.90;18.65;;;;;;;;;;5036135;28;20044;-95
2022/12/05 05:53:26;;;;;;;28.55;18.17;;;;;;;;;;5039231;28;20152;-96
2022/12/05 05:55:52;;;;;;;29.80;17.00;;;;;;;;;;5070678;28;20063;-96
2022/12/05 05:58:18;;;;;;;27.23;15.95;;;;;;;;;;5082514;28;20532;-95
2022/12/05 06:00:44;;;;;;;24.65;15.63;;;;;;;;;;5053015;28;20120;-93
2022/12/05 06:03:10;;;;;;;20.70;13.10;;;;;;;;;;5054846;28;20053;-95
2022/12/05 06:05:36;;;;;;;21.80;13.85;;;;;;;;;;5053630;28;20047;-94
2022/12/05 06:08:02;;;;;;;16.85;11.60;;;;;;;;;;5070251;28;20056;-96
2022/12/05 06:10:31;;;;;;;19.10;12.75;;;;;;;;;;5072162;28;20062;-94
2022/12/05 06:12:57;;;;;;;18.13;11.35;;;;;;;;;;5065836;28;20040;-95
2022/12/05 06:15:23;;;;;;;16.45;11.38;;;;;;;;;;5052178;28;20032;-94
2022/12/05 06:17:49;;;;;;;18.77;11.65;;;;;;;;;;5038239;28;20048;-94
2022/12/05 06:20:16;;;;;;;19.60;12.43;;;;;;;;;;5037702;28;20040;-94
2022/12/05 06:22:42;;;;;;;19.10;11.38;;;;;;;;;;5036910;28;20103;-94
2022/12/05 06:25:08;;;;;;;16.98;11.60;;;;;;;;;;5053225;28;20044;-92
2022/12/05 06:27:34;;;;;;;18.92;11.52;;;;;;;;;;5052780;28;20037;-95
2022/12/05 06:30:00;;;;;;;16.80;10.43;;;;;;;;;;5056372;28;20037;-95
2022/12/05 06:32:27;;;;;;;19.40;12.70;;;;;;;;;;5054169;28;20393;-95
2022/12/05 06:34:53;;;;;;;17.83;11.80;;;;;;;;;;5072468;28;20040;-95
2022/12/05 06:37:19;;;;;;;21.35;12.68;;;;;;;;;;5052077;28;20040;-94
2022/12/05 06:39:46;;;;;;;16.75;11.27;;;;;;;;;;5033937;28;20484;-95
2022/12/05 06:42:12;;;;;;;19.85;12.57;;;;;;;;;;5040927;28;20127;-95
2022/12/05 06:44:38;;;;;;;21.50;11.57;;;;;;;;;;5053780;28;20040;-94
2022/12/05 06:47:04;;;;;;;18.42;10.90;;;;;;;;;;5020681;28;20056;-94
2022/12/05 06:49:32;;;;;;;15.57;8.95;;;;;;;;;;5054349;28;20036;-93
2022/12/05 06:52:01;;;;;;;12.80;8.60;;;;;;;;;;5052763;28;20076;-94
2022/12/05 06:54:27;;;;;;;13.15;8.40;;;;;;;;;;5044682;28;20036;-95
2022/12/05 06:56:53;;;;;;;12.27;7.65;;;;;;;;;;5031834;28;20040;-96
2022/12/05 06:59:19;;;;;;;9.98;6.85;;;;;;;;;;5036374;28;20044;-94
2022/12/05 07:01:45;;;;;;;14.25;8.07;;;;;;;;;;5066535;28;20036;-94
2022/12/05 07:04:14;;;;;;;12.77;7.55;;;;;;;;;;5067255;28;20064;-95
2022/12/05 07:06:41;;;;;;;10.70;7.22;;;;;;;;;;5034985;28;20085;-95
2022/12/05 07:09:07;;;;;;;12.50;7.53;;;;;;;;;;5048332;28;20111;-96
2022/12/05 07:11:34;;;;;;;14.20;8.52;;;;;;;;;;5035375;28;20068;-94
2022/12/05 07:14:00;;;;;;;12.35;7.57;;;;;;;;;;5049905;28;20037;-95
2022/12/05 07:16:26;;;;;;;12.95;8.23;;;;;;;;;;5066212;28;20036;-94
2022/12/05 07:18:52;;;;;;;13.60;8.98;;;;;;;;;;5052456;28;20044;-93
2022/12/05 07:21:20;;;;;;;13.98;8.65;;;;;;;;;;5052873;28;20044;-94
2022/12/05 07:23:48;;;;;;;11.63;6.80;;;;;;;;;;5037505;28;20055;-93
2022/12/05 07:26:15;;;;;;;15.77;9.25;;;;;;;;;;5049496;28;20060;-95
2022/12/05 07:28:41;;;;;;;11.68;6.85;;;;;;;;;;5051878;28;20059;-94
2022/12/05 07:31:09;;;;;;;13.00;8.07;;;;;;;;;;5040852;28;20070;-94
2022/12/05 07:33:35;;;;;;;12.10;6.30;;;;;;;;;;5043719;28;20048;-95
2022/12/05 07:36:06;;;;;;;11.70;7.45;;;;;;;;;;5028215;28;20051;-94
2022/12/05 07:38:32;;;;;;;12.40;7.93;;;;;;;;;;5051894;28;20297;-94
2022/12/05 07:40:58;;;;;;;12.40;6.70;;;;;;;;;;5050650;28;20352;-94
2022/12/05 07:43:25;;;;;;;14.48;7.90;;;;;;;;;;5030807;28;20049;-95
2022/12/05 07:45:51;;;;;;;12.88;7.32;;;;;;;;;;5024367;28;20172;-95
2022/12/05 07:48:17;;;;;;;14.20;8.60;;;;;;;;;;5053613;28;20045;-94
2022/12/05 07:50:43;;;;;;;13.60;7.55;;;;;;;;;;5079166;28;20050;-95
2022/12/05 07:53:09;;;;;;;13.02;7.20;;;;;;;;;;5058514;28;20096;-93
2022/12/05 07:55:37;;;;;;;13.63;6.47;;;;;;;;;;5074667;28;20028;-94
2022/12/05 07:58:03;;;;;;;11.48;7.22;;;;;;;;;;5034681;28;20424;-94
2022/12/05 08:00:29;;;;;;;12.85;7.97;;;;;;;;;;5035532;28;20044;-94
2022/12/05 08:02:55;;;;;;;13.90;8.43;;;;;;;;;;5066067;28;20048;-95
2022/12/05 08:05:21;;;;;;;10.88;7.05;;;;;;;;;;5031447;28;20040;-95
2022/12/05 08:07:47;;;;;;;12.50;8.13;;;;;;;;;;5059807;28;20596;-96
2022/12/05 08:10:13;;;;;;;12.00;8.40;;;;;;;;;;5049269;28;20356;-96
2022/12/05 08:12:39;;;;;;;14.68;8.95;;;;;;;;;;5069348;28;20036;-95
2022/12/05 08:15:06;;;;;;;14.10;9.10;;;;;;;;;;5068026;28;20099;-95
2022/12/05 08:17:32;;;;;;;15.90;8.70;;;;;;;;;;5070127;28;20080;-94
2022/12/05 08:19:58;;;;;;;12.65;8.32;;;;;;;;;;5066497;28;20546;-96
2022/12/05 08:22:25;;;;;;;13.77;9.00;;;;;;;;;;5050507;28;20504;-94
2022/12/05 08:24:51;;;;;;;15.27;7.95;;;;;;;;;;5028338;28;20045;-94
2022/12/05 08:27:17;;;;;;;13.23;8.38;;;;;;;;;;5044815;28;20554;-94
2022/12/05 08:29:43;;;;;;;17.40;9.63;;;;;;;;;;5050928;28;20133;-94
2022/12/05 08:32:09;;;;;;;14.82;9.30;;;;;;;;;;5066322;28;20139;-94
2022/12/05 08:34:35;;;;;;;15.20;8.50;;;;;;;;;;5060845;28;20255;-94
2022/12/05 08:37:01;;;;;;;14.15;7.85;;;;;;;;;;5035119;28;20036;-95
2022/12/05 08:39:28;;;;;;;16.70;9.15;;;;;;;;;;5063330;28;20036;-96
2022/12/05 08:41:54;;;;;;;15.90;9.15;;;;;;;;;;5050003;28;20080;-95
2022/12/05 08:44:20;;;;;;;12.10;6.15;;;;;;;;;;5050373;28;20079;-94
2022/12/05 08:46:47;;;;;;;16.02;9.27;;;;;;;;;;5048924;28;20044;-94
2022/12/05 08:49:14;;;;;;;14.07;8.52;;;;;;;;;;5069257;28;20484;-95
2022/12/05 08:51:41;;;;;;;13.30;8.20;;;;;;;;;;5047951;28;20337;-94
2022/12/05 08:54:07;;;;;;;14.90;8.10;;;;;;;;;;5032838;28;20036;-95
2022/12/05 08:56:33;;;;;;;14.00;7.35;;;;;;;;;;5069294;28;20043;-94
2022/12/05 08:59:01;;;;;;;15.68;8.65;;;;;;;;;;5049849;28;20072;-94
2022/12/05 09:01:30;;;;;;;16.25;9.63;;;;;;;;;;5046862;28;20060;-94
2022/12/05 09:03:59;;;;;;;12.25;7.75;;;;;;;;;;5048110;28;20546;-94
2022/12/05 09:06:25;;;;;;;15.40;8.38;;;;;;;;;;5050955;28;20113;-94
2022/12/05 09:08:56;;;;;;;16.95;10.13;;;;;;;;;;5034386;28;20120;-93
2022/12/05 09:11:23;;;;;;;17.63;10.18;;;;;;;;;;5018130;28;20037;-95
2022/12/05 09:13:50;;;;;;;15.35;9.02;;;;;;;;;;5040796;28;20504;-94
2022/12/05 09:16:17;;;;;;;13.57;7.45;;;;;;;;;;5034428;28;20041;-95
2022/12/05 09:18:44;;;;;;;11.43;6.70;;;;;;;;;;5048686;28;20055;-93
2022/12/05 09:21:10;;;;;;;13.30;7.90;;;;;;;;;;5034370;28;20426;-93
2022/12/05 09:23:36;;;;;;;13.82;7.97;;;;;;;;;;5034079;28;20055;-95
2022/12/05 09:26:05;;;;;;;16.33;8.32;;;;;;;;;;5048709;28;20056;-95
2022/12/05 09:28:32;;;;;;;12.55;8.13;;;;;;;;;;5048679;28;20041;-94
2022/12/05 09:31:00;;;;;;;15.23;9.93;;;;;;;;;;5050824;28;20440;-95
2022/12/05 09:33:26;;;;;;;16.88;8.88;;;;;;;;;;5050351;28;20586;-94
2022/12/05 09:35:52;;;;;;;13.88;7.95;;;;;;;;;;5034311;28;20048;-94
2022/12/05 09:38:18;;;;;;;14.52;8.75;;;;;;;;;;5049890;28;20044;-95
2022/12/05 09:40:44;;;;;;;16.65;8.82;;;;;;;;;;5021625;28;20116;-94
2022/12/05 09:43:25;;;;;;;15.23;9.35;;;;;;;;;;5046274;28;20127;-94
2022/12/05 09:45:55;;;;;;;17.83;9.88;;;;;;;;;;5070253;28;20040;-94
2022/12/05 09:48:22;;;;;;;14.80;7.85;;;;;;;;;;5050505;28;20044;-94
2022/12/05 09:50:49;;;;;;;13.52;8.85;;;;;;;;;;5041840;28;20075;-95
2022/12/05 09:53:18;;;;;;;12.77;8.63;;;;;;;;;;5083430;28;20029;-95
2022/12/05 09:55:52;;;;;;;16.45;8.13;;;;;;;;;;5049341;28;20044;-94
2022/12/05 09:58:27;;;;;;;16.38;9.82;;;;;;;;;;5049639;28;20077;-94
2022/12/05 10:01:02;;;;;;;17.77;9.80;;;;;;;;;;5066149;28;20044;-94
2022/12/05 10:03:46;;;;;;;12.73;7.40;;;;;;;;;;5065695;28;20087;-95
2022/12/05 10:06:12;;;;;;;16.92;10.63;;;;;;;;;;5062312;28;20125;-95
2022/12/05 10:08:38;;;;;;;17.38;9.93;;;;;;;;;;5063147;28;20079;-95
2022/12/05 10:11:07;;;;;;;18.52;8.65;;;;;;;;;;5048856;28;20119;-94
2022/12/05 10:13:33;;;;;;;17.30;9.02;;;;;;;;;;5050085;28;20114;-95
2022/12/05 10:16:06;;;;;;;16.95;7.93;;;;;;;;;;5049787;28;20044;-95
2022/12/05 10:18:45;;;;;;;16.55;8.27;;;;;;;;;;5049239;28;20113;-95
2022/12/05 10:21:22;;;;;;;17.13;9.90;;;;;;;;;;5030365;28;20060;-96
2022/12/05 10:23:48;;;;;;;15.68;8.98;;;;;;;;;;5050254;28;20044;-95
2022/12/05 10:26:15;;;;;;;19.52;8.98;;;;;;;;;;5066179;28;20055;-95
2022/12/05 10:28:49;;;;;;;14.48;8.35;;;;;;;;;;5016883;28;20036;-95
2022/12/05 10:31:18;;;;;;;16.55;8.80;;;;;;;;;;5031156;28;20040;-94
2022/12/05 10:33:47;;;;;;;14.15;8.95;;;;;;;;;;5045960;28;20044;-95
2022/12/05 10:36:13;;;;;;;14.43;6.60;;;;;;;;;;5033199;28;20131;-94
2022/12/05 10:38:41;;;;;;;16.17;9.57;;;;;;;;;;5036945;28;20047;-96
2022/12/05 10:41:08;;;;;;;19.13;10.32;;;;;;;;;;5053592;28;20048;-94
2022/12/05 10:43:36;;;;;;;17.38;10.35;;;;;;;;;;5053376;28;20051;-95
2022/12/05 10:46:03;;;;;;;19.15;10.70;;;;;;;;;;5050484;28;20251;-96
2022/12/05 10:48:33;;;;;;;18.30;9.25;;;;;;;;;;5067888;28;20110;-96
2022/12/05 10:50:59;;;;;;;18.10;10.02;;;;;;;;;;5052314;28;20120;-96
2022/12/05 10:53:27;;;;;;;16.35;9.23;;;;;;;;;;5053933;28;20056;-96
2022/12/05 10:55:54;;;;;;;18.08;8.10;;;;;;;;;;5054725;28;20106;-95
2022/12/05 10:58:27;;;;;;;19.25;9.52;;;;;;;;;;5054513;28;20115;-96
2022/12/05 11:00:58;;;;;;;20.73;9.20;;;;;;;;;;5035574;28;20554;-95
2022/12/05 11:03:29;;;;;;;14.38;7.57;;;;;;;;;;5044538;28;20052;-95
2022/12/05 11:05:57;;;;;;;14.82;7.60;;;;;;;;;;5029312;28;20102;-95
2022/12/05 11:08:24;;;;;;;13.60;8.30;;;;;;;;;;5040661;28;20040;-96
2022/12/05 11:11:00;;;;;;;16.65;10.02;;;;;;;;;;5052065;28;20276;-95
2022/12/05 11:13:26;;;;;;;16.42;8.52;;;;;;;;;;5051756;28;20490;-95
2022/12/05 11:15:52;;;;;;;15.63;9.05;;;;;;;;;;5050745;28;20043;-94
2022/12/05 11:18:24;;;;;;;18.20;10.13;;;;;;;;;;5050145;28;20047;-95
2022/12/05 11:20:51;;;;;;;12.13;6.70;;;;;;;;;;5050273;28;20053;-96
2022/12/05 11:23:22;;;;;;;18.85;9.90;;;;;;;;;;5064788;28;20048;-96
2022/12/05 11:25:48;;;;;;;16.55;9.35;;;;;;;;;;5034795;28;20536;-96
2022/12/05 11:28:17;;;;;;;16.88;7.85;;;;;;;;;;5050559;28;20044;-96
2022/12/05 11:31:03;;;;;;;18.88;9.52;;;;;;;;;;5051603;28;20064;-95
2022/12/05 11:33:30;;;;;;;14.20;7.13;;;;;;;;;;5069281;28;20032;-96
2022/12/05 11:36:01;;;;;;;14.95;8.63;;;;;;;;;;5069617;28;20489;-96
2022/12/05 11:38:31;;;;;;;16.23;9.25;;;;;;;;;;5049581;28;20504;-96
2022/12/05 11:41:10;;;;;;;19.20;9.50;;;;;;;;;;5069762;28;20164;-96
2022/12/05 11:43:37;;;;;;;17.73;9.50;;;;;;;;;;5052580;28;20354;-95
2022/12/05 11:46:03;;;;;;;14.73;8.98;;;;;;;;;;5069419;28;20105;-95
2022/12/05 11:48:32;;;;;;;19.35;9.57;;;;;;;;;;5030567;28;20043;-96
2022/12/05 11:51:04;;;;;;;14.30;8.65;;;;;;;;;;5033782;28;20044;-94
2022/12/05 11:53:46;;;;;;;15.13;7.72;;;;;;;;;;5036752;28;20048;-95
2022/12/05 11:56:26;;;;;;;15.02;7.93;;;;;;;;;;5052056;28;20040;-94
2022/12/05 11:58:52;;;;;;;11.50;7.35;;;;;;;;;;5020773;28;20485;-94
2022/12/05 12:01:37;;;;;;;12.32;6.47;;;;;;;;;;5066548;28;20412;-95
2022/12/05 12:04:16;;;;;;;12.52;7.28;;;;;;;;;;5033719;28;20079;-95
2022/12/05 12:06:50;;;;;;;14.20;7.25;;;;;;;;;;5054783;28;20044;-95
2022/12/05 12:09:30;;;;;;;10.18;5.95;;;;;;;;;;5034899;28;20044;-96
2022/12/05 12:12:02;;;;;;;9.90;5.47;;;;;;;;;;5033020;28;20432;-94
2022/12/05 12:14:46;;;;;;;11.82;7.03;;;;;;;;;;5046015;28;20075;-94
2022/12/05 12:17:15;;;;;;;10.23;6.30;;;;;;;;;;5045232;28;20057;-94
2022/12/05 12:20:00;;;;;;;10.18;5.50;;;;;;;;;;5075292;28;20054;-94
2022/12/05 12:22:48;;;;;;;11.50;5.85;;;;;;;;;;5070236;28;20044;-94
2022/12/05 12:25:29;;;;;;;10.18;5.28;;;;;;;;;;5049780;28;20047;-95
2022/12/05 12:28:04;;;;;;;10.73;5.63;;;;;;;;;;5035078;28;20405;-95
2022/12/05 12:30:33;;;;;;;9.57;5.60;;;;;;;;;;5050444;28;20115;-93
2022/12/05 12:33:02;;;;;;;10.38;5.22;;;;;;;;;;5067904;28;20132;-94
2022/12/05 12:35:30;;;;;;;14.57;5.68;;;;;;;;;;5048911;28;20098;-94
2022/12/05 12:37:59;;;;;;;10.13;4.75;;;;;;;;;;5032877;28;20067;-95
2022/12/05 12:40:39;;;;;;;9.65;5.18;;;;;;;;;;5068887;28;20714;-95
2022/12/05 12:43:19;;;;;;;7.85;4.57;;;;;;;;;;5050707;28;20455;-94
2022/12/05 12:45:46;;;;;;;11.18;4.72;;;;;;;;;;5040526;28;20051;-95
2022/12/05 12:48:19;;;;;;;8.75;4.47;;;;;;;;;;5049093;28;20505;-94
2022/12/05 12:50:46;;;;;;;9.18;5.00;;;;;;;;;;5034708;28;20040;-95
2022/12/05 12:53:31;;;;;;;9.05;5.25;;;;;;;;;;5033576;28;20040;-94
2022/12/05 12:56:00;;;;;;;9.77;4.57;;;;;;;;;;5033603;28;20110;-95
2022/12/05 12:58:26;;;;;;;8.77;4.40;;;;;;;;;;5051557;28;20635;-95
2022/12/05 13:01:03;;;;;;;8.50;4.35;;;;;;;;;;5049877;28;20052;-94
2022/12/05 13:03:48;;;;;;;8.15;4.63;;;;;;;;;;5049188;28;20147;-95
2022/12/05 13:06:20;;;;;;;8.52;4.82;;;;;;;;;;5038519;28;20438;-95
2022/12/05 13:08:58;;;;;;;10.10;4.82;;;;;;;;;;5053005;28;20040;-95
2022/12/05 13:11:28;;;;;;;9.05;4.80;;;;;;;;;;5050702;28;20029;-95
2022/12/05 13:13:56;;;;;;;7.40;4.45;;;;;;;;;;5050584;28;20102;-96
2022/12/05 13:16:38;;;;;;;11.30;5.40;;;;;;;;;;5031960;28;20036;-95
2022/12/05 13:19:05;;;;;;;11.18;4.97;;;;;;;;;;5050443;28;20045;-95
2022/12/05 13:21:32;;;;;;;8.75;4.60;;;;;;;;;;5033826;28;20120;-95
2022/12/05 13:24:02;;;;;;;10.20;4.60;;;;;;;;;;5049663;28;20412;-95
2022/12/05 13:26:28;;;;;;;8.85;4.60;;;;;;;;;;5049889;28;20121;-95
2022/12/05 13:28:56;;;;;;;11.35;5.00;;;;;;;;;;5049783;28;20496;-95
2022/12/05 13:31:36;;;;;;;7.43;4.60;;;;;;;;;;5049172;28;20059;-95
2022/12/05 13:34:02;;;;;;;9.20;4.35;;;;;;;;;;5032630;28;20386;-95
2022/12/05 13:42:14;;;;;;;9.83;3.50;;;;;;;;;;5044293;28;20072;-95
2022/12/05 13:44:40;;;;;;;7.90;3.60;;;;;;;;;;5047757;28;20330;-95
2022/12/05 13:47:07;;;;;;;7.75;4.13;;;;;;;;;;5031508;28;20106;-95
2022/12/05 13:49:44;;;;;;;15.63;4.55;;;;;;;;;;5049340;28;20051;-94
2022/12/05 13:52:18;;;;;;;10.02;4.13;;;;;;;;;;5032761;28;20044;-96
2022/12/05 13:54:57;;;;;;;7.60;3.13;;;;;;;;;;5046828;28;20445;-96
2022/12/05 13:57:38;;;;;;;9.02;4.57;;;;;;;;;;5031648;28;20041;-96
2022/12/05 14:00:05;;;;;;;;;;;;;;;;;;5044559;28;20044;-96
2022/12/05 14:02:40;;;;;;;8.80;4.65;;;;;;;;;;5052796;28;20168;-96
2022/12/05 14:05:26;;;;;;;8.77;4.22;;;;;;;;;;5036157;28;20056;-96
2022/12/05 14:07:54;;;;;;;10.80;4.82;;;;;;;;;;5059864;28;20044;-96
2022/12/05 14:10:43;;;;;;;12.43;5.05;;;;;;;;;;5052247;28;20020;-96
2022/12/05 14:13:18;;;;;;;7.95;4.05;;;;;;;;;;5040620;28;20547;-96
2022/12/05 14:15:45;;;;;;;8.90;3.88;;;;;;;;;;5054047;28;20093;-96
2022/12/05 14:18:14;;;;;;;8.27;4.22;;;;;;;;;;5071601;28;20114;-96
2022/12/05 14:20:49;;;;;;;8.57;4.55;;;;;;;;;;5038770;28;20130;-96
2022/12/05 14:23:35;;;;;;;8.57;3.78;;;;;;;;;;5053446;28;20481;-96
2022/12/05 14:26:07;;;;;;;9.68;4.70;;;;;;;;;;5055788;28;20036;-96
2022/12/05 14:28:51;;;;;;;8.52;4.10;;;;;;;;;;5037229;28;20169;-96
2022/12/05 14:31:26;;;;;;;8.18;4.50;;;;;;;;;;5038192;28;20058;-96
2022/12/05 14:34:26;;;;;;;8.40;4.05;;;;;;;;;;5056044;28;20040;-96
2022/12/05 14:36:53;;;;;;;10.32;4.47;;;;;;;;;;5071555;28;20137;-96
2022/12/05 14:39:28;;;;;;;8.10;4.13;;;;;;;;;;5058339;28;20054;-96
2022/12/05 14:42:01;;;;;;;11.13;4.72;;;;;;;;;;5050027;28;20123;-96
2022/12/05 14:44:33;;;;;;;11.52;4.40;;;;;;;;;;5060262;28;20016;-96
2022/12/05 14:47:02;;;;;;;8.77;4.10;;;;;;;;;;5072502;28;20413;-96
2022/12/05 14:49:47;;;;;;;10.65;4.10;;;;;;;;;;5033647;28;20068;-96
2022/12/05 14:52:19;;;;;;;6.82;3.28;;;;;;;;;;5059311;28;20119;-96